Terminal Aerodrome Forecast
Issued by NWS

Home | Current Version | Previous Version | Text Only | Print | Product List | Glossary On
Versions: 1 2 3 4 5 6 7 8 9 10 11 12 13 14 15 16 17 18 19 20 21 22 23 24 25 26 27 28 29 30 31 32 33 34
000
FTUS43 KLOT 300300 AAB
TAFORD
TAF AMD
KORD 300333Z 3004/3106 17010KT P6SM SCT040 SCT250
      TEMPO 3006/3007 -SHRA OVC040
     FM300700 18009KT P6SM SCT040 BKN250
     FM301600 22012G20KT P6SM BKN035 PROB30 3016/3019 5SM -TSRA
      BKN030CB
     FM310100 23006KT P6SM BKN300=

USA.gov is the U.S. government's official web portal to all federal, state and local government web resources and services.